Terminal Aerodrome Forecast
Issued by NWS Springfield, MO

Home | Current Version | Previous Version | Text Only | Print | Product List | Glossary On
Versions: 1 2 3 4 5 6 7 8 9 10 11 12
157
FTUS43 KSGF 251120
TAFSGF
TAF
KSGF 251120Z 2512/2612 32005KT P6SM BKN200
     FM251500 21005KT P6SM -SHRA SCT090
      TEMPO 2515/2516 4SM TS BKN090CB
     FM251700 27008KT P6SM -SHRA VCTS BKN090CB
     FM252100 30010KT P6SM -SHRA VCTS OVC070CB
     FM252300 32008KT P6SM BKN050 PROB30 2523/2524 4SM -TSRA
      OVC025CB
     FM261000 34006KT P6SM SCT200=

USA.gov is the U.S. government's official web portal to all federal, state and local government web resources and services.